sensor_id;sensor_type;location;lat;lon;timestamp;temperature;humidity
16879;DHT22;8556;52.218;9.884;2023-08-07T00:02:01;15.30;99.90
16879;DHT22;8556;52.218;9.884;2023-08-07T00:04:28;15.10;99.90
16879;DHT22;8556;52.218;9.884;2023-08-07T00:06:56;15.30;99.90
16879;DHT22;8556;52.218;9.884;2023-08-07T00:09:23;15.30;99.90
16879;DHT22;8556;52.218;9.884;2023-08-07T00:11:50;15.40;99.90
16879;DHT22;8556;52.218;9.884;2023-08-07T00:14:17;15.40;99.90
16879;DHT22;8556;52.218;9.884;2023-08-07T00:16:44;15.40;99.90
16879;DHT22;8556;52.218;9.884;2023-08-07T00:19:11;15.40;99.90
16879;DHT22;8556;52.218;9.884;2023-08-07T00:21:38;15.40;99.90
16879;DHT22;8556;52.218;9.884;2023-08-07T00:24:06;15.50;99.90
16879;DHT22;8556;52.218;9.884;2023-08-07T00:26:33;15.50;99.90
16879;DHT22;8556;52.218;9.884;2023-08-07T00:29:00;15.50;99.90
16879;DHT22;8556;52.218;9.884;2023-08-07T00:31:27;15.50;99.90
16879;DHT22;8556;52.218;9.884;2023-08-07T00:33:56;15.50;99.90
16879;DHT22;8556;52.218;9.884;2023-08-07T00:36:23;15.50;99.90
16879;DHT22;8556;52.218;9.884;2023-08-07T00:38:51;15.50;99.90
16879;DHT22;8556;52.218;9.884;2023-08-07T00:41:19;15.50;99.90
16879;DHT22;8556;52.218;9.884;2023-08-07T00:43:46;15.40;99.90
16879;DHT22;8556;52.218;9.884;2023-08-07T00:46:14;15.30;99.90
16879;DHT22;8556;52.218;9.884;2023-08-07T00:48:41;15.30;99.90
16879;DHT22;8556;52.218;9.884;2023-08-07T00:51:08;15.20;99.90
16879;DHT22;8556;52.218;9.884;2023-08-07T00:53:37;15.30;99.90
16879;DHT22;8556;52.218;9.884;2023-08-07T00:56:05;15.30;99.90
16879;DHT22;8556;52.218;9.884;2023-08-07T00:58:34;15.30;99.90
16879;DHT22;8556;52.218;9.884;2023-08-07T01:01:01;15.30;99.90
16879;DHT22;8556;52.218;9.884;2023-08-07T01:03:28;15.30;99.90
16879;DHT22;8556;52.218;9.884;2023-08-07T01:05:55;15.30;99.90
16879;DHT22;8556;52.218;9.884;2023-08-07T01:08:22;15.30;99.90
16879;DHT22;8556;52.218;9.884;2023-08-07T01:11:00;15.30;99.90
16879;DHT22;8556;52.218;9.884;2023-08-07T01:13:40;15.30;99.90
16879;DHT22;8556;52.218;9.884;2023-08-07T01:16:15;15.30;99.90
16879;DHT22;8556;52.218;9.884;2023-08-07T01:18:45;15.30;99.90
16879;DHT22;8556;52.218;9.884;2023-08-07T01:21:17;15.20;99.90
16879;DHT22;8556;52.218;9.884;2023-08-07T01:23:45;15.20;99.90
16879;DHT22;8556;52.218;9.884;2023-08-07T01:26:12;15.20;99.90
16879;DHT22;8556;52.218;9.884;2023-08-07T01:28:45;15.20;99.90
16879;DHT22;8556;52.218;9.884;2023-08-07T01:31:14;15.10;99.90
16879;DHT22;8556;52.218;9.884;2023-08-07T01:33:50;15.20;99.90
16879;DHT22;8556;52.218;9.884;2023-08-07T01:36:17;15.20;99.90
16879;DHT22;8556;52.218;9.884;2023-08-07T01:38:47;15.30;99.90
16879;DHT22;8556;52.218;9.884;2023-08-07T01:41:15;15.30;99.90
16879;DHT22;8556;52.218;9.884;2023-08-07T01:43:42;15.30;99.90
16879;DHT22;8556;52.218;9.884;2023-08-07T01:46:10;15.20;99.90
16879;DHT22;8556;52.218;9.884;2023-08-07T01:48:37;15.20;99.90
16879;DHT22;8556;52.218;9.884;2023-08-07T01:51:04;15.10;99.90
16879;DHT22;8556;52.218;9.884;2023-08-07T01:53:30;15.20;99.90
16879;DHT22;8556;52.218;9.884;2023-08-07T01:55:59;15.10;99.90
16879;DHT22;8556;52.218;9.884;2023-08-07T01:58:26;15.20;99.90
16879;DHT22;8556;52.218;9.884;2023-08-07T02:00:53;15.10;99.90
16879;DHT22;8556;52.218;9.884;2023-08-07T02:03:20;15.10;99.90
16879;DHT22;8556;52.218;9.884;2023-08-07T02:05:47;15.10;99.90
16879;DHT22;8556;52.218;9.884;2023-08-07T02:08:16;15.10;99.90
16879;DHT22;8556;52.218;9.884;2023-08-07T02:10:51;15.10;99.90
16879;DHT22;8556;52.218;9.884;2023-08-07T02:13:19;15.10;99.90
16879;DHT22;8556;52.218;9.884;2023-08-07T02:15:46;15.00;99.90
16879;DHT22;8556;52.218;9.884;2023-08-07T02:18:12;15.00;99.90
16879;DHT22;8556;52.218;9.884;2023-08-07T02:20:39;15.00;99.90
16879;DHT22;8556;52.218;9.884;2023-08-07T02:23:06;15.00;99.90
16879;DHT22;8556;52.218;9.884;2023-08-07T02:25:33;15.10;99.90
16879;DHT22;8556;52.218;9.884;2023-08-07T02:28:00;15.00;99.90
16879;DHT22;8556;52.218;9.884;2023-08-07T02:30:28;15.00;99.90
16879;DHT22;8556;52.218;9.884;2023-08-07T02:32:56;15.00;99.90
16879;DHT22;8556;52.218;9.884;2023-08-07T02:35:23;14.90;99.90
16879;DHT22;8556;52.218;9.884;2023-08-07T02:37:50;14.90;99.90
16879;DHT22;8556;52.218;9.884;2023-08-07T02:40:17;14.90;99.90
16879;DHT22;8556;52.218;9.884;2023-08-07T02:42:44;14.90;99.90
16879;DHT22;8556;52.218;9.884;2023-08-07T02:45:11;14.80;99.90
16879;DHT22;8556;52.218;9.884;2023-08-07T02:47:39;14.80;99.90
16879;DHT22;8556;52.218;9.884;2023-08-07T02:50:07;14.70;99.90
16879;DHT22;8556;52.218;9.884;2023-08-07T02:52:33;14.70;99.90
16879;DHT22;8556;52.218;9.884;2023-08-07T02:55:00;14.70;99.90
16879;DHT22;8556;52.218;9.884;2023-08-07T02:57:27;14.70;99.90
16879;DHT22;8556;52.218;9.884;2023-08-07T02:59:54;14.60;99.90
16879;DHT22;8556;52.218;9.884;2023-08-07T03:02:21;14.60;99.90
16879;DHT22;8556;52.218;9.884;2023-08-07T03:04:49;14.60;99.90
16879;DHT22;8556;52.218;9.884;2023-08-07T03:07:16;14.50;99.90
16879;DHT22;8556;52.218;9.884;2023-08-07T03:09:45;14.50;99.90
16879;DHT22;8556;52.218;9.884;2023-08-07T03:12:13;14.50;99.90
16879;DHT22;8556;52.218;9.884;2023-08-07T03:14:39;14.60;99.90
16879;DHT22;8556;52.218;9.884;2023-08-07T03:17:06;14.50;99.90
16879;DHT22;8556;52.218;9.884;2023-08-07T03:19:33;14.50;99.90
16879;DHT22;8556;52.218;9.884;2023-08-07T03:22:02;14.50;99.90
16879;DHT22;8556;52.218;9.884;2023-08-07T03:24:29;14.50;99.90
16879;DHT22;8556;52.218;9.884;2023-08-07T03:26:55;14.50;99.90
16879;DHT22;8556;52.218;9.884;2023-08-07T03:29:22;14.50;99.90
16879;DHT22;8556;52.218;9.884;2023-08-07T03:31:50;14.50;99.90
16879;DHT22;8556;52.218;9.884;2023-08-07T03:34:17;14.50;99.90
16879;DHT22;8556;52.218;9.884;2023-08-07T03:36:44;14.60;99.90
16879;DHT22;8556;52.218;9.884;2023-08-07T03:39:12;14.60;99.90
16879;DHT22;8556;52.218;9.884;2023-08-07T03:41:39;14.60;99.90
16879;DHT22;8556;52.218;9.884;2023-08-07T03:44:06;14.70;99.90
16879;DHT22;8556;52.218;9.884;2023-08-07T03:46:33;14.60;99.90
16879;DHT22;8556;52.218;9.884;2023-08-07T03:49:00;14.70;99.90
16879;DHT22;8556;52.218;9.884;2023-08-07T03:51:26;14.70;99.90
16879;DHT22;8556;52.218;9.884;2023-08-07T03:53:54;14.70;99.90
16879;DHT22;8556;52.218;9.884;2023-08-07T03:56:23;14.80;99.90
16879;DHT22;8556;52.218;9.884;2023-08-07T03:58:49;14.70;99.90
16879;DHT22;8556;52.218;9.884;2023-08-07T04:01:16;14.80;99.90
16879;DHT22;8556;52.218;9.884;2023-08-07T04:03:43;14.70;99.90
16879;DHT22;8556;52.218;9.884;2023-08-07T04:06:11;14.80;99.90
16879;DHT22;8556;52.218;9.884;2023-08-07T04:08:41;14.80;99.90
16879;DHT22;8556;52.218;9.884;2023-08-07T04:11:08;14.80;99.90
16879;DHT22;8556;52.218;9.884;2023-08-07T04:13:37;14.80;99.90
16879;DHT22;8556;52.218;9.884;2023-08-07T04:16:04;14.80;99.90
16879;DHT22;8556;52.218;9.884;2023-08-07T04:18:31;14.90;99.90
16879;DHT22;8556;52.218;9.884;2023-08-07T04:20:59;14.90;99.90
16879;DHT22;8556;52.218;9.884;2023-08-07T04:23:26;14.80;99.90
16879;DHT22;8556;52.218;9.884;2023-08-07T04:25:53;14.90;99.90
16879;DHT22;8556;52.218;9.884;2023-08-07T04:28:20;14.90;99.90
16879;DHT22;8556;52.218;9.884;2023-08-07T04:30:51;14.90;99.90
16879;DHT22;8556;52.218;9.884;2023-08-07T04:33:19;14.90;99.90
16879;DHT22;8556;52.218;9.884;2023-08-07T04:35:46;14.90;99.90
16879;DHT22;8556;52.218;9.884;2023-08-07T04:38:13;15.00;99.90
16879;DHT22;8556;52.218;9.884;2023-08-07T04:40:44;14.90;99.90
16879;DHT22;8556;52.218;9.884;2023-08-07T04:43:11;15.00;99.90
16879;DHT22;8556;52.218;9.884;2023-08-07T04:45:38;15.00;99.90
16879;DHT22;8556;52.218;9.884;2023-08-07T04:48:07;15.00;99.90
16879;DHT22;8556;52.218;9.884;2023-08-07T04:50:34;15.00;99.90
16879;DHT22;8556;52.218;9.884;2023-08-07T04:53:01;15.00;99.90
16879;DHT22;8556;52.218;9.884;2023-08-07T04:55:29;15.10;99.90
16879;DHT22;8556;52.218;9.884;2023-08-07T04:57:58;15.10;99.90
16879;DHT22;8556;52.218;9.884;2023-08-07T05:00:26;15.10;99.90
16879;DHT22;8556;52.218;9.884;2023-08-07T05:02:53;15.10;99.90
16879;DHT22;8556;52.218;9.884;2023-08-07T05:05:22;15.10;99.90
16879;DHT22;8556;52.218;9.884;2023-08-07T05:07:49;15.20;99.90
16879;DHT22;8556;52.218;9.884;2023-08-07T05:10:16;15.10;99.90
16879;DHT22;8556;52.218;9.884;2023-08-07T05:12:42;15.10;99.90
16879;DHT22;8556;52.218;9.884;2023-08-07T05:15:09;15.10;99.90
16879;DHT22;8556;52.218;9.884;2023-08-07T05:17:36;15.20;99.90
16879;DHT22;8556;52.218;9.884;2023-08-07T05:20:07;15.20;99.90
16879;DHT22;8556;52.218;9.884;2023-08-07T05:22:36;15.20;99.90
16879;DHT22;8556;52.218;9.884;2023-08-07T05:25:03;15.10;99.90
16879;DHT22;8556;52.218;9.884;2023-08-07T05:27:30;15.10;99.90
16879;DHT22;8556;52.218;9.884;2023-08-07T05:29:57;15.10;99.90
16879;DHT22;8556;52.218;9.884;2023-08-07T05:32:24;15.10;99.90
16879;DHT22;8556;52.218;9.884;2023-08-07T05:34:53;15.10;99.90
16879;DHT22;8556;52.218;9.884;2023-08-07T05:37:19;15.20;99.90
16879;DHT22;8556;52.218;9.884;2023-08-07T05:39:48;15.30;99.90
16879;DHT22;8556;52.218;9.884;2023-08-07T05:42:16;15.30;99.90
16879;DHT22;8556;52.218;9.884;2023-08-07T05:44:43;15.30;99.90
16879;DHT22;8556;52.218;9.884;2023-08-07T05:49:42;15.30;99.90
16879;DHT22;8556;52.218;9.884;2023-08-07T05:52:09;15.30;99.90
16879;DHT22;8556;52.218;9.884;2023-08-07T05:54:36;15.30;99.90
16879;DHT22;8556;52.218;9.884;2023-08-07T05:57:07;15.40;99.90
16879;DHT22;8556;52.218;9.884;2023-08-07T05:59:34;15.40;99.90
16879;DHT22;8556;52.218;9.884;2023-08-07T06:02:01;15.40;99.90
16879;DHT22;8556;52.218;9.884;2023-08-07T06:04:28;15.40;99.90
16879;DHT22;8556;52.218;9.884;2023-08-07T06:06:55;15.40;99.90
16879;DHT22;8556;52.218;9.884;2023-08-07T06:09:22;15.50;99.90
16879;DHT22;8556;52.218;9.884;2023-08-07T06:11:49;15.60;99.90
16879;DHT22;8556;52.218;9.884;2023-08-07T06:14:17;15.60;99.90
16879;DHT22;8556;52.218;9.884;2023-08-07T06:16:44;15.60;99.90
16879;DHT22;8556;52.218;9.884;2023-08-07T06:19:11;15.60;99.90
16879;DHT22;8556;52.218;9.884;2023-08-07T06:21:38;15.60;99.90
16879;DHT22;8556;52.218;9.884;2023-08-07T06:24:05;15.60;99.90
16879;DHT22;8556;52.218;9.884;2023-08-07T06:26:32;15.70;99.90
16879;DHT22;8556;52.218;9.884;2023-08-07T06:28:58;15.70;99.90
16879;DHT22;8556;52.218;9.884;2023-08-07T06:31:27;15.60;99.90
16879;DHT22;8556;52.218;9.884;2023-08-07T06:33:53;15.70;99.90
16879;DHT22;8556;52.218;9.884;2023-08-07T06:36:20;15.70;99.90
16879;DHT22;8556;52.218;9.884;2023-08-07T06:38:47;15.80;99.90
16879;DHT22;8556;52.218;9.884;2023-08-07T06:41:14;15.70;99.90
16879;DHT22;8556;52.218;9.884;2023-08-07T06:43:41;15.70;99.90
16879;DHT22;8556;52.218;9.884;2023-08-07T06:46:08;15.80;99.90
16879;DHT22;8556;52.218;9.884;2023-08-07T06:48:38;15.80;99.90
16879;DHT22;8556;52.218;9.884;2023-08-07T06:51:05;15.90;99.90
16879;DHT22;8556;52.218;9.884;2023-08-07T06:53:31;15.90;99.90
16879;DHT22;8556;52.218;9.884;2023-08-07T06:55:58;15.90;99.90
16879;DHT22;8556;52.218;9.884;2023-08-07T06:58:25;15.90;99.90
16879;DHT22;8556;52.218;9.884;2023-08-07T07:00:52;16.00;99.90
16879;DHT22;8556;52.218;9.884;2023-08-07T07:03:18;16.00;99.90
16879;DHT22;8556;52.218;9.884;2023-08-07T07:05:49;16.10;99.90
16879;DHT22;8556;52.218;9.884;2023-08-07T07:08:15;16.10;99.90
16879;DHT22;8556;52.218;9.884;2023-08-07T07:10:42;16.20;99.90
16879;DHT22;8556;52.218;9.884;2023-08-07T07:13:09;16.20;99.90
16879;DHT22;8556;52.218;9.884;2023-08-07T07:15:36;16.20;99.90
16879;DHT22;8556;52.218;9.884;2023-08-07T07:18:03;16.10;99.90
16879;DHT22;8556;52.218;9.884;2023-08-07T07:20:29;16.10;99.90
16879;DHT22;8556;52.218;9.884;2023-08-07T07:22:57;16.00;99.90
16879;DHT22;8556;52.218;9.884;2023-08-07T07:25:24;16.00;99.90
16879;DHT22;8556;52.218;9.884;2023-08-07T07:27:51;16.00;99.90
16879;DHT22;8556;52.218;9.884;2023-08-07T07:30:22;15.90;99.90
16879;DHT22;8556;52.218;9.884;2023-08-07T07:32:50;15.90;99.90
16879;DHT22;8556;52.218;9.884;2023-08-07T07:35:16;15.70;99.90
16879;DHT22;8556;52.218;9.884;2023-08-07T07:37:44;15.70;99.90
16879;DHT22;8556;52.218;9.884;2023-08-07T07:40:13;15.60;99.90
16879;DHT22;8556;52.218;9.884;2023-08-07T07:42:40;15.60;99.90
16879;DHT22;8556;52.218;9.884;2023-08-07T07:45:07;15.50;99.90
16879;DHT22;8556;52.218;9.884;2023-08-07T07:47:34;15.60;99.90
16879;DHT22;8556;52.218;9.884;2023-08-07T07:50:05;15.60;99.90
16879;DHT22;8556;52.218;9.884;2023-08-07T07:52:34;15.60;99.90
16879;DHT22;8556;52.218;9.884;2023-08-07T07:55:01;15.50;99.90
16879;DHT22;8556;52.218;9.884;2023-08-07T07:57:29;15.70;99.90
16879;DHT22;8556;52.218;9.884;2023-08-07T07:59:56;15.70;99.90
16879;DHT22;8556;52.218;9.884;2023-08-07T08:02:23;15.80;99.90
16879;DHT22;8556;52.218;9.884;2023-08-07T08:04:51;15.90;99.90
16879;DHT22;8556;52.218;9.884;2023-08-07T08:07:18;16.00;99.90
16879;DHT22;8556;52.218;9.884;2023-08-07T08:09:45;16.20;99.90
16879;DHT22;8556;52.218;9.884;2023-08-07T08:12:15;16.30;99.90
16879;DHT22;8556;52.218;9.884;2023-08-07T08:14:43;16.40;99.90
16879;DHT22;8556;52.218;9.884;2023-08-07T08:17:10;16.40;99.90
16879;DHT22;8556;52.218;9.884;2023-08-07T08:19:37;16.60;99.90
16879;DHT22;8556;52.218;9.884;2023-08-07T08:22:04;16.60;99.90
16879;DHT22;8556;52.218;9.884;2023-08-07T08:24:31;16.70;99.90
16879;DHT22;8556;52.218;9.884;2023-08-07T08:26:58;16.60;99.90
16879;DHT22;8556;52.218;9.884;2023-08-07T08:29:25;16.40;99.90
16879;DHT22;8556;52.218;9.884;2023-08-07T08:31:55;16.30;99.90
16879;DHT22;8556;52.218;9.884;2023-08-07T08:34:22;16.20;99.90
16879;DHT22;8556;52.218;9.884;2023-08-07T08:36:49;16.30;99.90
16879;DHT22;8556;52.218;9.884;2023-08-07T08:39:16;16.30;99.90
16879;DHT22;8556;52.218;9.884;2023-08-07T08:41:46;16.20;99.90
16879;DHT22;8556;52.218;9.884;2023-08-07T08:44:14;16.10;99.90
16879;DHT22;8556;52.218;9.884;2023-08-07T08:46:42;16.00;99.90
16879;DHT22;8556;52.218;9.884;2023-08-07T08:49:11;15.90;99.90
16879;DHT22;8556;52.218;9.884;2023-08-07T08:51:40;16.00;99.90
16879;DHT22;8556;52.218;9.884;2023-08-07T08:54:07;16.00;99.90
16879;DHT22;8556;52.218;9.884;2023-08-07T08:56:36;16.00;99.90
16879;DHT22;8556;52.218;9.884;2023-08-07T08:59:03;16.00;99.90
16879;DHT22;8556;52.218;9.884;2023-08-07T09:01:31;16.00;99.90
16879;DHT22;8556;52.218;9.884;2023-08-07T09:03:58;16.00;99.90
16879;DHT22;8556;52.218;9.884;2023-08-07T09:06:28;16.20;99.90
16879;DHT22;8556;52.218;9.884;2023-08-07T09:08:58;16.40;99.90
16879;DHT22;8556;52.218;9.884;2023-08-07T09:11:26;16.60;99.90
16879;DHT22;8556;52.218;9.884;2023-08-07T09:13:55;16.70;99.90
16879;DHT22;8556;52.218;9.884;2023-08-07T09:16:23;17.00;99.90
16879;DHT22;8556;52.218;9.884;2023-08-07T09:18:51;17.40;99.90
16879;DHT22;8556;52.218;9.884;2023-08-07T09:21:20;17.50;99.90
16879;DHT22;8556;52.218;9.884;2023-08-07T09:23:49;17.50;99.90
16879;DHT22;8556;52.218;9.884;2023-08-07T09:26:21;17.40;99.90
16879;DHT22;8556;52.218;9.884;2023-08-07T09:28:51;17.40;99.90
16879;DHT22;8556;52.218;9.884;2023-08-07T09:31:19;16.90;99.90
16879;DHT22;8556;52.218;9.884;2023-08-07T09:33:47;16.50;99.90
16879;DHT22;8556;52.218;9.884;2023-08-07T09:36:14;16.30;99.90
16879;DHT22;8556;52.218;9.884;2023-08-07T09:38:42;16.20;99.90
16879;DHT22;8556;52.218;9.884;2023-08-07T09:41:11;16.20;99.90
16879;DHT22;8556;52.218;9.884;2023-08-07T09:43:37;16.00;99.90
16879;DHT22;8556;52.218;9.884;2023-08-07T09:46:05;16.20;99.90
16879;DHT22;8556;52.218;9.884;2023-08-07T09:48:39;16.40;99.90
16879;DHT22;8556;52.218;9.884;2023-08-07T09:51:06;16.80;99.90
16879;DHT22;8556;52.218;9.884;2023-08-07T09:53:32;17.40;99.90
16879;DHT22;8556;52.218;9.884;2023-08-07T09:56:00;17.60;99.90
16879;DHT22;8556;52.218;9.884;2023-08-07T09:58:28;17.70;99.90
16879;DHT22;8556;52.218;9.884;2023-08-07T10:00:55;18.10;99.90
16879;DHT22;8556;52.218;9.884;2023-08-07T10:03:25;18.20;99.90
16879;DHT22;8556;52.218;9.884;2023-08-07T10:05:53;18.30;99.90
16879;DHT22;8556;52.218;9.884;2023-08-07T10:08:21;18.00;99.90
16879;DHT22;8556;52.218;9.884;2023-08-07T10:10:48;17.70;99.90
16879;DHT22;8556;52.218;9.884;2023-08-07T10:13:15;17.60;99.90
16879;DHT22;8556;52.218;9.884;2023-08-07T10:15:44;17.50;99.90
16879;DHT22;8556;52.218;9.884;2023-08-07T10:18:11;17.30;99.90
16879;DHT22;8556;52.218;9.884;2023-08-07T10:20:39;17.10;99.90
16879;DHT22;8556;52.218;9.884;2023-08-07T10:23:09;16.20;99.90
16879;DHT22;8556;52.218;9.884;2023-08-07T10:25:39;16.10;99.90
16879;DHT22;8556;52.218;9.884;2023-08-07T10:28:09;16.10;99.90
16879;DHT22;8556;52.218;9.884;2023-08-07T10:30:37;16.20;99.90
16879;DHT22;8556;52.218;9.884;2023-08-07T10:33:07;16.40;99.90
16879;DHT22;8556;52.218;9.884;2023-08-07T10:35:35;16.80;99.90
16879;DHT22;8556;52.218;9.884;2023-08-07T10:38:09;16.70;99.90
16879;DHT22;8556;52.218;9.884;2023-08-07T10:40:58;17.00;99.90
16879;DHT22;8556;52.218;9.884;2023-08-07T10:43:25;17.30;99.90
16879;DHT22;8556;52.218;9.884;2023-08-07T10:45:53;17.80;99.90
16879;DHT22;8556;52.218;9.884;2023-08-07T10:48:21;18.20;99.90
16879;DHT22;8556;52.218;9.884;2023-08-07T10:50:50;18.20;99.90
16879;DHT22;8556;52.218;9.884;2023-08-07T10:53:19;18.30;99.90
16879;DHT22;8556;52.218;9.884;2023-08-07T10:55:47;18.40;99.90
16879;DHT22;8556;52.218;9.884;2023-08-07T10:58:24;18.00;99.90
16879;DHT22;8556;52.218;9.884;2023-08-07T11:00:52;17.70;99.90
16879;DHT22;8556;52.218;9.884;2023-08-07T11:03:29;17.60;99.90
16879;DHT22;8556;52.218;9.884;2023-08-07T11:06:01;17.90;99.90
16879;DHT22;8556;52.218;9.884;2023-08-07T11:08:29;18.00;99.90
16879;DHT22;8556;52.218;9.884;2023-08-07T11:10:59;18.00;99.90
16879;DHT22;8556;52.218;9.884;2023-08-07T11:13:30;17.70;99.90
16879;DHT22;8556;52.218;9.884;2023-08-07T11:15:57;18.00;99.90
16879;DHT22;8556;52.218;9.884;2023-08-07T11:18:25;18.10;99.90
16879;DHT22;8556;52.218;9.884;2023-08-07T11:20:54;18.10;99.90
16879;DHT22;8556;52.218;9.884;2023-08-07T11:23:23;18.10;99.90
16879;DHT22;8556;52.218;9.884;2023-08-07T11:25:50;18.80;99.90
16879;DHT22;8556;52.218;9.884;2023-08-07T11:28:18;19.10;99.90
16879;DHT22;8556;52.218;9.884;2023-08-07T11:30:46;18.90;99.90
16879;DHT22;8556;52.218;9.884;2023-08-07T11:33:14;19.00;99.90
16879;DHT22;8556;52.218;9.884;2023-08-07T11:35:41;19.00;99.90
16879;DHT22;8556;52.218;9.884;2023-08-07T11:38:10;19.00;99.90
16879;DHT22;8556;52.218;9.884;2023-08-07T11:40:37;19.20;99.90
16879;DHT22;8556;52.218;9.884;2023-08-07T11:43:04;19.70;99.90
16879;DHT22;8556;52.218;9.884;2023-08-07T11:45:30;19.60;99.90
16879;DHT22;8556;52.218;9.884;2023-08-07T11:47:57;19.90;99.90
16879;DHT22;8556;52.218;9.884;2023-08-07T11:50:24;19.90;99.90
16879;DHT22;8556;52.218;9.884;2023-08-07T11:52:54;19.70;99.90
16879;DHT22;8556;52.218;9.884;2023-08-07T11:55:28;20.30;99.90
16879;DHT22;8556;52.218;9.884;2023-08-07T11:57:55;20.30;99.90
16879;DHT22;8556;52.218;9.884;2023-08-07T12:00:25;19.80;99.90
16879;DHT22;8556;52.218;9.884;2023-08-07T12:02:53;17.40;99.90
16879;DHT22;8556;52.218;9.884;2023-08-07T12:05:20;16.80;99.90
16879;DHT22;8556;52.218;9.884;2023-08-07T12:07:47;16.30;99.90
16879;DHT22;8556;52.218;9.884;2023-08-07T12:10:14;16.10;99.90
16879;DHT22;8556;52.218;9.884;2023-08-07T12:12:45;16.20;99.90
16879;DHT22;8556;52.218;9.884;2023-08-07T12:15:12;16.30;99.90
16879;DHT22;8556;52.218;9.884;2023-08-07T12:17:39;16.50;99.90
16879;DHT22;8556;52.218;9.884;2023-08-07T12:20:08;16.80;99.90
16879;DHT22;8556;52.218;9.884;2023-08-07T12:22:37;17.20;99.90
16879;DHT22;8556;52.218;9.884;2023-08-07T12:25:04;17.50;99.90
16879;DHT22;8556;52.218;9.884;2023-08-07T12:27:31;17.90;99.90
16879;DHT22;8556;52.218;9.884;2023-08-07T12:29:59;17.80;99.90
16879;DHT22;8556;52.218;9.884;2023-08-07T12:32:26;17.70;99.90
16879;DHT22;8556;52.218;9.884;2023-08-07T12:34:53;17.30;99.90
16879;DHT22;8556;52.218;9.884;2023-08-07T12:37:20;17.10;99.90
16879;DHT22;8556;52.218;9.884;2023-08-07T12:39:48;17.00;99.90
16879;DHT22;8556;52.218;9.884;2023-08-07T12:42:15;16.90;99.90
16879;DHT22;8556;52.218;9.884;2023-08-07T12:44:41;16.70;99.90
16879;DHT22;8556;52.218;9.884;2023-08-07T12:47:10;16.50;99.90
16879;DHT22;8556;52.218;9.884;2023-08-07T12:49:36;16.00;99.90
16879;DHT22;8556;52.218;9.884;2023-08-07T12:52:04;15.80;99.90
16879;DHT22;8556;52.218;9.884;2023-08-07T12:54:31;15.50;99.90
16879;DHT22;8556;52.218;9.884;2023-08-07T12:56:58;15.60;99.90
16879;DHT22;8556;52.218;9.884;2023-08-07T12:59:24;15.80;99.90
16879;DHT22;8556;52.218;9.884;2023-08-07T13:01:51;15.90;99.90
16879;DHT22;8556;52.218;9.884;2023-08-07T13:04:20;16.00;99.90
16879;DHT22;8556;52.218;9.884;2023-08-07T13:06:47;16.70;99.90
16879;DHT22;8556;52.218;9.884;2023-08-07T13:09:15;16.80;99.90
16879;DHT22;8556;52.218;9.884;2023-08-07T13:11:41;17.30;99.90
16879;DHT22;8556;52.218;9.884;2023-08-07T13:14:08;17.50;99.90
16879;DHT22;8556;52.218;9.884;2023-08-07T13:16:35;17.80;99.90
16879;DHT22;8556;52.218;9.884;2023-08-07T13:19:02;17.90;99.90
16879;DHT22;8556;52.218;9.884;2023-08-07T13:21:30;18.00;99.90
16879;DHT22;8556;52.218;9.884;2023-08-07T13:23:57;18.40;99.90
16879;DHT22;8556;52.218;9.884;2023-08-07T13:26:24;18.60;99.90
16879;DHT22;8556;52.218;9.884;2023-08-07T13:28:50;18.70;99.90
16879;DHT22;8556;52.218;9.884;2023-08-07T13:31:17;18.40;99.90
16879;DHT22;8556;52.218;9.884;2023-08-07T13:33:44;18.10;99.90
16879;DHT22;8556;52.218;9.884;2023-08-07T13:36:11;18.10;99.90
16879;DHT22;8556;52.218;9.884;2023-08-07T13:38:39;18.30;99.90
16879;DHT22;8556;52.218;9.884;2023-08-07T13:41:06;18.30;99.90
16879;DHT22;8556;52.218;9.884;2023-08-07T13:43:33;18.00;99.90
16879;DHT22;8556;52.218;9.884;2023-08-07T13:46:00;17.80;99.90
16879;DHT22;8556;52.218;9.884;2023-08-07T13:48:26;17.80;99.90
16879;DHT22;8556;52.218;9.884;2023-08-07T13:50:53;18.10;99.90
16879;DHT22;8556;52.218;9.884;2023-08-07T13:53:20;18.30;99.90
16879;DHT22;8556;52.218;9.884;2023-08-07T13:55:50;18.60;99.90
16879;DHT22;8556;52.218;9.884;2023-08-07T13:58:17;18.60;99.90
16879;DHT22;8556;52.218;9.884;2023-08-07T14:00:44;18.30;99.90
16879;DHT22;8556;52.218;9.884;2023-08-07T14:03:11;17.90;99.90
16879;DHT22;8556;52.218;9.884;2023-08-07T14:05:38;17.60;99.90
16879;DHT22;8556;52.218;9.884;2023-08-07T14:08:05;17.50;99.90
16879;DHT22;8556;52.218;9.884;2023-08-07T14:10:31;17.40;99.90
16879;DHT22;8556;52.218;9.884;2023-08-07T14:13:00;17.30;99.90
16879;DHT22;8556;52.218;9.884;2023-08-07T14:15:27;17.80;99.90
16879;DHT22;8556;52.218;9.884;2023-08-07T14:17:54;18.30;99.90
16879;DHT22;8556;52.218;9.884;2023-08-07T14:20:21;18.30;99.90
16879;DHT22;8556;52.218;9.884;2023-08-07T14:22:48;18.40;99.90
16879;DHT22;8556;52.218;9.884;2023-08-07T14:25:15;18.30;99.90
16879;DHT22;8556;52.218;9.884;2023-08-07T14:27:42;18.20;99.90
16879;DHT22;8556;52.218;9.884;2023-08-07T14:30:11;18.20;99.90
16879;DHT22;8556;52.218;9.884;2023-08-07T14:32:38;18.60;99.90
16879;DHT22;8556;52.218;9.884;2023-08-07T14:35:06;18.60;99.90
16879;DHT22;8556;52.218;9.884;2023-08-07T14:37:33;18.30;99.90
16879;DHT22;8556;52.218;9.884;2023-08-07T14:40:01;18.40;99.90
16879;DHT22;8556;52.218;9.884;2023-08-07T14:42:28;18.60;99.90
16879;DHT22;8556;52.218;9.884;2023-08-07T14:44:55;18.60;99.90
16879;DHT22;8556;52.218;9.884;2023-08-07T14:47:23;18.80;99.90
16879;DHT22;8556;52.218;9.884;2023-08-07T14:49:50;18.80;99.90
16879;DHT22;8556;52.218;9.884;2023-08-07T14:52:17;19.10;99.90
16879;DHT22;8556;52.218;9.884;2023-08-07T14:54:45;18.70;99.90
16879;DHT22;8556;52.218;9.884;2023-08-07T14:57:12;18.70;99.90
16879;DHT22;8556;52.218;9.884;2023-08-07T14:59:39;18.80;99.90
16879;DHT22;8556;52.218;9.884;2023-08-07T15:02:06;18.40;99.90
16879;DHT22;8556;52.218;9.884;2023-08-07T15:04:35;18.40;99.90
16879;DHT22;8556;52.218;9.884;2023-08-07T15:07:02;18.40;99.90
16879;DHT22;8556;52.218;9.884;2023-08-07T15:09:29;18.60;99.90
16879;DHT22;8556;52.218;9.884;2023-08-07T15:11:56;18.70;99.90
16879;DHT22;8556;52.218;9.884;2023-08-07T15:14:23;18.60;99.90
16879;DHT22;8556;52.218;9.884;2023-08-07T15:16:50;18.70;99.90
16879;DHT22;8556;52.218;9.884;2023-08-07T15:19:17;18.70;99.90
16879;DHT22;8556;52.218;9.884;2023-08-07T15:21:45;18.50;99.90
16879;DHT22;8556;52.218;9.884;2023-08-07T15:24:12;18.50;99.90
16879;DHT22;8556;52.218;9.884;2023-08-07T15:26:39;18.50;99.90
16879;DHT22;8556;52.218;9.884;2023-08-07T15:29:06;18.50;99.90
16879;DHT22;8556;52.218;9.884;2023-08-07T15:31:33;18.30;99.90
16879;DHT22;8556;52.218;9.884;2023-08-07T15:34:00;18.40;99.90
16879;DHT22;8556;52.218;9.884;2023-08-07T15:36:27;18.30;99.90
16879;DHT22;8556;52.218;9.884;2023-08-07T15:38:55;18.20;99.90
16879;DHT22;8556;52.218;9.884;2023-08-07T15:41:22;18.20;99.90
16879;DHT22;8556;52.218;9.884;2023-08-07T15:43:49;18.30;99.90
16879;DHT22;8556;52.218;9.884;2023-08-07T15:46:17;18.10;99.90
16879;DHT22;8556;52.218;9.884;2023-08-07T15:48:44;18.10;99.90
16879;DHT22;8556;52.218;9.884;2023-08-07T15:51:11;18.10;99.90